Time;durP1;ratioP1;P1;durP2;ratioP2;P2;SDS_P1;SDS_P2;PMS_P1;PMS_P2;Temp;Humidity;BMP_temperature;BMP_pressure;BME280_temperature;BME280_humidity;BME280_pressure;Samples;Min_cycle;Max_cycle;Signal;HPM_P1;HPM_P2
2021/03/06 00:00:23;;;;;;;1.80;1.10;;;-3.10;48.80;;;;;;4371899;32;20169;-40
2021/03/06 00:02:53;;;;;;;2.23;0.77;;;-3.10;48.80;;;;;;4376232;32;20073;-34
2021/03/06 00:05:21;;;;;;;2.53;1.00;;;-3.10;48.80;;;;;;4376042;32;20541;-34
2021/03/06 00:07:48;;;;;;;1.50;0.80;;;-3.10;48.80;;;;;;4388301;32;20058;-34
2021/03/06 00:10:15;;;;;;;2.67;1.37;;;-3.10;48.80;;;;;;4389907;32;20077;-35
2021/03/06 00:12:44;;;;;;;2.57;1.50;;;-3.10;48.80;;;;;;4389665;32;20137;-35
2021/03/06 00:15:14;;;;;;;2.70;1.20;;;-3.10;48.70;;;;;;4388361;32;20078;-34
2021/03/06 00:17:40;;;;;;;2.30;1.03;;;-3.10;48.60;;;;;;4389501;32;20653;-35
2021/03/06 00:20:08;;;;;;;2.17;1.03;;;-3.10;48.50;;;;;;4389614;32;20061;-34
2021/03/06 00:22:35;;;;;;;3.60;1.00;;;-3.10;48.50;;;;;;4388202;32;20069;-34
2021/03/06 00:25:04;;;;;;;2.43;1.00;;;-3.20;48.50;;;;;;4388118;32;20102;-35
2021/03/06 00:27:30;;;;;;;2.90;0.83;;;-3.20;48.60;;;;;;4387615;32;20517;-33
2021/03/06 00:29:57;;;;;;;2.67;1.07;;;-3.30;48.50;;;;;;4389385;32;20066;-34
2021/03/06 00:32:23;;;;;;;3.73;0.87;;;-3.30;48.70;;;;;;4389552;32;20075;-34
2021/03/06 00:34:50;;;;;;;2.67;1.13;;;-3.30;48.80;;;;;;4389396;32;20127;-37
2021/03/06 00:37:16;;;;;;;4.17;0.90;;;-3.40;48.80;;;;;;4362809;32;20054;-33
2021/03/06 00:39:43;;;;;;;5.63;1.30;;;-3.40;48.90;;;;;;4387958;32;20118;-33
2021/03/06 00:42:09;;;;;;;4.20;1.00;;;-3.40;49.00;;;;;;4389129;32;20146;-33
2021/03/06 00:44:36;;;;;;;1.47;0.77;;;-3.50;48.80;;;;;;4387713;32;20166;-33
2021/03/06 00:47:02;;;;;;;4.10;0.93;;;-3.50;48.90;;;;;;4387879;32;20072;-33
2021/03/06 00:49:29;;;;;;;2.33;0.90;;;-3.50;48.80;;;;;;4389345;32;20069;-33
2021/03/06 00:51:55;;;;;;;2.07;0.80;;;-3.50;48.80;;;;;;4375454;32;20066;-34
2021/03/06 00:54:22;;;;;;;6.37;1.33;;;-3.50;48.60;;;;;;4389959;32;20542;-33
2021/03/06 00:56:48;;;;;;;2.90;0.90;;;-3.50;48.50;;;;;;4375257;32;20060;-33
2021/03/06 00:59:15;;;;;;;2.63;1.20;;;-3.50;48.50;;;;;;4387644;32;20107;-34
2021/03/06 01:01:41;;;;;;;2.83;1.30;;;-3.50;49.30;;;;;;4375015;32;20150;-34
2021/03/06 01:04:08;;;;;;;1.77;0.80;;;-3.50;48.70;;;;;;4388947;32;20063;-33
2021/03/06 01:06:34;;;;;;;1.50;1.00;;;-3.50;48.80;;;;;;4387635;32;20053;-34
2021/03/06 01:09:01;;;;;;;2.17;1.20;;;-3.50;48.90;;;;;;4387653;32;20085;-34
2021/03/06 01:11:29;;;;;;;2.60;0.90;;;-3.50;48.90;;;;;;4387697;32;20066;-34
2021/03/06 01:13:56;;;;;;;7.20;2.23;;;-3.50;48.90;;;;;;4388812;32;20148;-34
2021/03/06 01:16:23;;;;;;;3.23;1.23;;;-3.60;48.90;;;;;;4375034;32;20073;-34
2021/03/06 01:18:49;;;;;;;2.87;1.17;;;-3.60;48.90;;;;;;4387131;32;20077;-34
2021/03/06 01:21:16;;;;;;;3.97;1.50;;;-3.60;48.90;;;;;;4387351;32;20502;-34
2021/03/06 01:23:42;;;;;;;2.63;1.13;;;-3.60;48.90;;;;;;4387247;32;20050;-35
2021/03/06 01:26:09;;;;;;;1.90;1.03;;;-3.60;48.90;;;;;;4388548;32;20157;-36
2021/03/06 01:28:35;;;;;;;2.30;1.20;;;-3.60;49.00;;;;;;4343364;32;20082;-34
2021/03/06 01:31:02;;;;;;;2.70;1.20;;;-3.50;49.00;;;;;;4343920;32;20101;-35
2021/03/06 01:33:28;;;;;;;3.07;1.20;;;-3.50;48.90;;;;;;4356337;32;20090;-40
2021/03/06 01:35:55;;;;;;;3.93;1.60;;;-3.50;48.70;;;;;;4343876;32;20085;-34
2021/03/06 01:38:21;;;;;;;4.53;2.03;;;-3.40;48.60;;;;;;4331323;32;20511;-34
2021/03/06 01:40:48;;;;;;;7.90;2.03;;;-3.40;48.50;;;;;;4356092;32;20098;-34
2021/03/06 01:43:17;;;;;;;4.90;2.60;;;-3.50;48.60;;;;;;4355927;32;20070;-34
2021/03/06 01:45:43;;;;;;;2.70;1.13;;;-3.50;48.60;;;;;;4331269;32;20146;-35
2021/03/06 01:48:10;;;;;;;5.30;1.93;;;-3.50;48.60;;;;;;4328591;33;20651;-34
2021/03/06 01:50:42;;;;;;;3.33;2.03;;;-3.50;48.60;;;;;;4341089;33;20085;-34
2021/03/06 01:53:11;;;;;;;6.00;1.70;;;-3.50;48.50;;;;;;4316718;33;20074;-35
2021/03/06 01:55:42;;;;;;;5.97;2.17;;;-3.60;48.40;;;;;;4328640;33;20091;-36
2021/03/06 01:58:09;;;;;;;8.63;3.07;;;-3.60;48.30;;;;;;4340953;33;20074;-35
2021/03/06 02:00:35;;;;;;;7.67;4.00;;;-3.60;48.40;;;;;;4340780;33;20129;-36
2021/03/06 02:03:02;;;;;;;5.70;1.60;;;-3.60;48.40;;;;;;4340569;33;20063;-39
2021/03/06 02:05:29;;;;;;;2.23;1.00;;;-3.70;48.50;;;;;;4317647;33;20070;-35
2021/03/06 02:07:55;;;;;;;2.30;1.23;;;-3.70;48.80;;;;;;4340881;33;20147;-36
2021/03/06 02:10:28;;;;;;;5.03;1.70;;;-3.70;49.10;;;;;;4303839;33;20093;-37
2021/03/06 02:13:40;;;;;;;4.77;2.33;;;-3.70;49.40;;;;;;4313838;33;20075;-34
2021/03/06 02:16:32;;;;;;;5.27;2.30;;;-3.70;49.50;;;;;;4313572;33;20101;-34
2021/03/06 02:19:45;;;;;;;6.57;1.70;;;-3.60;49.60;;;;;;4321501;33;20135;-34
2021/03/06 02:23:04;;;;;;;2.77;1.60;;;-3.70;49.40;;;;;;4269719;33;20064;-33
2021/03/06 02:25:45;;;;;;;4.90;1.83;;;-3.70;49.40;;;;;;4272021;33;20072;-34
2021/03/06 02:28:38;;;;;;;5.20;1.40;;;-3.70;49.30;;;;;;4282529;33;20620;-33
2021/03/06 02:31:04;;;;;;;2.80;1.43;;;-3.70;49.40;;;;;;4270765;33;20548;-34
2021/03/06 02:33:34;;;;;;;7.10;2.60;;;-3.70;49.30;;;;;;4258779;33;20538;-34
2021/03/06 02:36:02;;;;;;;8.60;2.07;;;-3.70;49.40;;;;;;4271115;33;20096;-34
2021/03/06 02:38:29;;;;;;;3.27;1.70;;;-3.80;50.00;;;;;;4255803;33;20607;-34
2021/03/06 02:40:56;;;;;;;12.83;5.03;;;-3.80;49.40;;;;;;4256122;33;20072;-34
2021/03/06 02:43:25;;;;;;;27.83;14.97;;;-3.80;49.40;;;;;;4234766;33;20524;-33
2021/03/06 02:45:53;;;;;;;9.10;4.83;;;-3.70;49.30;;;;;;4282263;33;20064;-33
2021/03/06 02:48:20;;;;;;;18.17;9.23;;;-3.80;49.10;;;;;;4270556;33;20126;-33
2021/03/06 02:50:51;;;;;;;6.73;3.13;;;-3.70;49.00;;;;;;4269834;33;20164;-34
2021/03/06 02:53:18;;;;;;;5.07;2.97;;;-3.80;48.80;;;;;;4253471;33;20080;-34
2021/03/06 02:55:44;;;;;;;7.63;4.37;;;-3.80;48.70;;;;;;4265258;33;20229;-34
2021/03/06 02:58:35;;;;;;;5.80;2.20;;;-3.80;48.80;;;;;;4295664;33;20620;-34
2021/03/06 03:01:14;;;;;;;4.10;1.83;;;-3.90;48.80;;;;;;4314780;33;20076;-33
2021/03/06 03:03:52;;;;;;;3.63;1.90;;;-3.90;48.90;;;;;;4326874;33;20580;-35
2021/03/06 03:06:31;;;;;;;3.27;1.57;;;-3.90;49.00;;;;;;4325683;33;20051;-33
2021/03/06 03:09:24;;;;;;;3.10;1.50;;;-3.90;48.90;;;;;;4321720;32;20151;-34
2021/03/06 03:12:01;;;;;;;5.13;3.10;;;-3.90;48.90;;;;;;4355005;32;20563;-34
2021/03/06 03:14:44;;;;;;;3.73;2.17;;;-3.90;48.80;;;;;;4354949;32;20059;-35
2021/03/06 03:17:14;;;;;;;4.87;2.23;;;-3.90;48.80;;;;;;4343903;32;20092;-35
2021/03/06 03:20:22;;;;;;;5.23;1.97;;;-3.90;48.80;;;;;;4330471;32;20089;-36
2021/03/06 03:22:53;;;;;;;4.83;1.73;;;-3.90;48.80;;;;;;4342932;32;20074;-34
2021/03/06 03:25:20;;;;;;;2.80;1.43;;;-3.90;49.30;;;;;;4385085;32;20065;-34
2021/03/06 03:27:46;;;;;;;5.40;2.17;;;-3.90;48.70;;;;;;4361156;32;20054;-34
2021/03/06 03:30:15;;;;;;;3.03;1.50;;;-3.90;48.70;;;;;;4387269;32;20116;-35
2021/03/06 03:32:44;;;;;;;5.47;1.67;;;-3.90;48.70;;;;;;4361333;32;20054;-34
2021/03/06 03:35:13;;;;;;;4.53;2.30;;;-3.90;48.70;;;;;;4350384;32;20077;-35
2021/03/06 03:37:44;;;;;;;2.47;1.17;;;-3.90;48.60;;;;;;4372672;32;20074;-34
2021/03/06 03:40:13;;;;;;;4.87;1.20;;;-3.90;48.50;;;;;;4347676;32;20085;-33
2021/03/06 03:42:40;;;;;;;5.47;1.90;;;-3.90;48.50;;;;;;4360179;32;20074;-31
2021/03/06 03:45:11;;;;;;;4.23;2.37;;;-3.80;48.40;;;;;;4360214;32;20068;-34
2021/03/06 03:47:40;;;;;;;3.77;1.53;;;-3.80;48.40;;;;;;4360030;32;20069;-36
2021/03/06 03:50:09;;;;;;;3.43;1.70;;;-3.70;48.50;;;;;;4360427;32;20167;-39
2021/03/06 03:52:47;;;;;;;4.43;2.27;;;-3.70;48.40;;;;;;4330162;33;20097;-34
2021/03/06 03:55:14;;;;;;;4.23;2.33;;;-3.60;48.60;;;;;;4330331;33;20562;-34
2021/03/06 03:57:46;;;;;;;6.43;2.70;;;-3.50;48.70;;;;;;4342604;33;20067;-35
2021/03/06 04:00:17;;;;;;;8.37;2.93;;;-3.40;49.10;;;;;;4327294;33;20067;-34
2021/03/06 04:02:44;;;;;;;8.70;2.70;;;-3.20;49.40;;;;;;4327689;33;20071;-33
2021/03/06 04:05:11;;;;;;;9.90;3.87;;;-3.00;49.60;;;;;;4315688;33;20063;-37
2021/03/06 04:07:56;;;;;;;12.20;3.83;;;-2.90;49.80;;;;;;4316348;33;20662;-38
2021/03/06 04:10:24;;;;;;;6.47;4.07;;;-2.70;50.10;;;;;;4324964;33;20276;-37
2021/03/06 04:12:51;;;;;;;4.77;2.83;;;-2.50;50.10;;;;;;4315599;33;20581;-38
2021/03/06 04:15:20;;;;;;;5.00;2.97;;;-2.30;50.30;;;;;;4327603;33;20067;-37
2021/03/06 04:17:47;;;;;;;7.07;4.10;;;-2.10;50.40;;;;;;4315710;33;20107;-38
2021/03/06 04:20:16;;;;;;;8.30;3.63;;;-1.90;50.50;;;;;;4315556;33;20071;-35
2021/03/06 04:22:43;;;;;;;4.10;2.97;;;-1.70;50.60;;;;;;4313576;33;20078;-35
2021/03/06 04:25:10;;;;;;;5.93;1.90;;;-1.40;50.60;;;;;;4312609;33;20143;-34
2021/03/06 04:27:37;;;;;;;3.57;1.70;;;-1.20;50.50;;;;;;4300859;33;20062;-35
2021/03/06 04:30:08;;;;;;;4.30;2.90;;;-1.00;50.40;;;;;;4313209;33;20104;-34
2021/03/06 04:32:39;;;;;;;6.20;2.80;;;-0.80;50.20;;;;;;4330395;33;20074;-35
2021/03/06 04:35:07;;;;;;;6.10;2.53;;;-0.70;49.80;;;;;;4341850;33;20079;-33
2021/03/06 04:37:33;;;;;;;3.40;1.77;;;-0.50;49.80;;;;;;4329632;33;20531;-33
2021/03/06 04:40:00;;;;;;;4.93;2.93;;;-0.40;49.70;;;;;;4341710;33;20479;-33
2021/03/06 04:42:27;;;;;;;3.90;1.90;;;-0.30;49.60;;;;;;4343396;32;20521;-34
2021/03/06 04:44:53;;;;;;;4.97;1.90;;;-0.10;49.60;;;;;;4332122;32;20098;-34
2021/03/06 04:47:20;;;;;;;5.53;2.00;;;0.00;49.40;;;;;;4344365;32;20082;-41
2021/03/06 04:49:46;;;;;;;5.10;2.83;;;0.20;49.80;;;;;;4314751;33;20070;-35
2021/03/06 04:52:13;;;;;;;5.37;2.43;;;0.30;49.80;;;;;;4302640;33;20067;-34
2021/03/06 04:54:40;;;;;;;2.73;1.53;;;0.40;49.90;;;;;;4315208;33;20150;-44
2021/03/06 04:57:08;;;;;;;3.90;2.03;;;0.70;50.30;;;;;;4315336;33;20078;-37
2021/03/06 04:59:34;;;;;;;4.27;2.07;;;0.80;50.30;;;;;;4326988;33;20288;-36
2021/03/06 05:02:01;;;;;;;5.73;2.10;;;1.10;50.50;;;;;;4326865;33;20112;-39
2021/03/06 05:04:28;;;;;;;4.00;2.17;;;1.30;50.70;;;;;;4314226;33;20078;-42
2021/03/06 05:06:54;;;;;;;2.87;1.77;;;1.60;50.80;;;;;;4312028;33;20090;-39
2021/03/06 05:09:21;;;;;;;4.30;1.87;;;1.80;51.00;;;;;;4326926;32;20203;-38
2021/03/06 05:11:47;;;;;;;5.03;1.97;;;2.10;50.90;;;;;;4356290;32;20615;-38
2021/03/06 05:14:14;;;;;;;6.27;1.47;;;2.40;50.80;;;;;;4331617;32;20091;-40
2021/03/06 05:16:40;;;;;;;2.87;1.40;;;2.70;50.70;;;;;;4343940;32;20079;-39
2021/03/06 05:19:07;;;;;;;6.53;2.20;;;3.00;50.60;;;;;;4314459;33;20185;-36
2021/03/06 05:21:35;;;;;;;2.17;1.07;;;3.30;50.10;;;;;;4326641;33;20158;-35
2021/03/06 05:24:05;;;;;;;2.40;1.60;;;3.50;49.80;;;;;;4314187;33;20118;-35
2021/03/06 05:26:32;;;;;;;3.23;1.30;;;3.70;49.20;;;;;;4326653;33;20186;-35
2021/03/06 05:28:59;;;;;;;5.53;1.53;;;3.90;48.40;;;;;;4332894;33;20071;-35
2021/03/06 05:31:25;;;;;;;2.20;1.33;;;4.10;47.90;;;;;;4341059;33;20102;-35
2021/03/06 05:33:52;;;;;;;2.37;1.23;;;4.20;47.80;;;;;;4328888;33;20242;-36
2021/03/06 05:36:18;;;;;;;1.83;0.90;;;4.30;47.20;;;;;;4340960;33;20142;-39
2021/03/06 05:38:45;;;;;;;3.83;1.20;;;4.60;46.90;;;;;;4328775;33;20170;-37
2021/03/06 05:41:12;;;;;;;2.03;1.10;;;4.70;46.20;;;;;;4328749;33;20197;-37
2021/03/06 05:43:39;;;;;;;2.30;1.20;;;4.90;45.80;;;;;;4341335;33;20074;-38
2021/03/06 05:46:05;;;;;;;4.27;1.40;;;5.20;45.80;;;;;;4341100;33;20075;-35
2021/03/06 05:48:32;;;;;;;1.80;0.90;;;5.40;45.40;;;;;;4341359;33;20067;-36
2021/03/06 05:50:58;;;;;;;2.30;1.17;;;5.60;43.70;;;;;;4364854;32;20070;-36
2021/03/06 05:53:25;;;;;;;1.53;1.07;;;5.80;43.60;;;;;;4345159;32;20105;-36
2021/03/06 05:55:54;;;;;;;2.10;1.17;;;5.90;42.80;;;;;;4357165;32;20073;-36
2021/03/06 05:58:21;;;;;;;3.10;1.40;;;6.00;42.00;;;;;;4356289;32;20071;-38
2021/03/06 06:00:48;;;;;;;2.93;0.87;;;6.20;42.00;;;;;;4358561;32;20065;-37
2021/03/06 06:03:18;;;;;;;2.10;0.90;;;6.40;42.00;;;;;;4357056;32;20142;-36
2021/03/06 06:05:48;;;;;;;2.80;1.10;;;6.70;41.60;;;;;;4344121;32;20462;-39
2021/03/06 06:08:14;;;;;;;1.70;1.00;;;6.90;40.60;;;;;;4344196;32;20063;-44
2021/03/06 06:10:41;;;;;;;3.30;1.00;;;7.20;39.40;;;;;;4358724;32;20548;-36
2021/03/06 06:13:07;;;;;;;4.03;1.20;;;7.40;39.20;;;;;;4373005;32;20074;-37
2021/03/06 06:15:34;;;;;;;2.10;1.00;;;7.40;38.20;;;;;;4359623;32;20143;-37
2021/03/06 06:18:00;;;;;;;1.87;0.97;;;7.50;37.80;;;;;;4372210;32;20073;-37
2021/03/06 06:20:27;;;;;;;2.30;1.37;;;7.70;37.60;;;;;;4371710;32;20077;-37
2021/03/06 06:23:11;;;;;;;1.23;0.83;;;7.90;37.30;;;;;;4371972;32;20072;-37
2021/03/06 06:25:38;;;;;;;3.37;1.00;;;8.00;36.30;;;;;;4371787;32;20073;-41
2021/03/06 06:28:06;;;;;;;1.60;1.07;;;8.20;36.60;;;;;;4373927;32;20069;-38
2021/03/06 06:30:32;;;;;;;1.83;0.90;;;8.40;36.00;;;;;;4403426;32;20069;-40
2021/03/06 06:32:59;;;;;;;2.30;0.90;;;8.60;35.80;;;;;;4403280;32;20084;-41
2021/03/06 06:35:26;;;;;;;1.37;0.83;;;8.80;34.80;;;;;;4389228;32;20466;-41
2021/03/06 06:38:00;;;;;;;1.70;0.80;;;8.90;34.30;;;;;;4402784;32;20140;-41
2021/03/06 06:40:29;;;;;;;1.55;0.93;;;8.90;33.70;;;;;;4402993;32;20053;-42
2021/03/06 06:42:56;;;;;;;1.57;0.83;;;8.90;33.10;;;;;;4376171;32;20049;-42
2021/03/06 06:45:23;;;;;;;2.90;1.10;;;8.80;33.00;;;;;;4364202;32;20062;-41
2021/03/06 06:47:52;;;;;;;2.70;0.97;;;8.70;33.50;;;;;;4388935;32;20153;-42
2021/03/06 06:50:30;;;;;;;1.03;0.70;;;8.70;33.10;;;;;;4376664;32;20126;-43
2021/03/06 06:52:56;;;;;;;2.63;1.40;;;8.70;32.60;;;;;;4388843;32;20041;-43
2021/03/06 06:55:37;;;;;;;2.27;1.30;;;8.70;32.80;;;;;;4389065;32;20054;-43
2021/03/06 06:58:04;;;;;;;1.27;0.80;;;8.70;33.00;;;;;;4402946;32;20069;-43
2021/03/06 07:00:31;;;;;;;2.43;1.13;;;8.80;33.70;;;;;;4402614;32;20463;-38
2021/03/06 07:03:03;;;;;;;2.87;1.33;;;8.90;33.50;;;;;;4388702;32;20111;-42
2021/03/06 07:05:32;;;;;;;2.50;1.17;;;9.00;33.10;;;;;;4376504;32;20061;-44
2021/03/06 07:08:25;;;;;;;2.87;1.10;;;9.00;32.10;;;;;;4370564;32;20070;-41
2021/03/06 07:10:52;;;;;;;1.90;1.13;;;8.90;32.40;;;;;;4355354;32;20070;-36
2021/03/06 07:13:19;;;;;;;2.50;1.47;;;8.80;31.70;;;;;;4357988;32;20061;-40
2021/03/06 07:15:56;;;;;;;2.73;1.00;;;8.60;31.60;;;;;;4333364;32;20066;-41
2021/03/06 07:18:23;;;;;;;2.57;1.20;;;8.40;31.30;;;;;;4345999;32;20067;-40
2021/03/06 07:20:51;;;;;;;4.00;1.27;;;8.20;31.40;;;;;;4357923;32;20063;-40
2021/03/06 07:23:21;;;;;;;2.73;1.20;;;8.00;31.90;;;;;;4346325;32;20137;-42
2021/03/06 07:25:57;;;;;;;3.27;1.23;;;7.90;32.70;;;;;;4358436;32;20087;-41
2021/03/06 07:28:24;;;;;;;1.90;1.23;;;7.90;33.10;;;;;;4357666;32;20158;-41
2021/03/06 07:30:51;;;;;;;1.83;1.20;;;7.90;33.30;;;;;;4357818;32;20136;-44
2021/03/06 07:33:19;;;;;;;4.03;0.90;;;7.90;33.30;;;;;;4358165;32;20074;-44
2021/03/06 07:35:46;;;;;;;1.60;0.90;;;7.90;33.30;;;;;;4345569;32;20071;-42
2021/03/06 07:38:17;;;;;;;1.60;0.70;;;7.80;32.60;;;;;;4351541;32;20147;-43
2021/03/06 07:40:59;;;;;;;0.43;0.40;;;7.70;32.90;;;;;;4345142;32;20082;-41
2021/03/06 07:43:31;;;;;;;0.30;0.27;;;7.60;32.40;;;;;;4357524;32;20189;-43
2021/03/06 07:45:58;;;;;;;0.50;0.30;;;7.50;32.00;;;;;;4332683;32;20078;-39
2021/03/06 07:48:28;;;;;;;3.80;1.00;;;7.40;32.20;;;;;;4345124;32;20106;-41
2021/03/06 07:50:54;;;;;;;1.90;1.10;;;7.30;32.40;;;;;;4345746;32;20131;-39
2021/03/06 07:53:22;;;;;;;1.07;0.50;;;7.20;32.60;;;;;;4333113;32;20553;-37
2021/03/06 07:55:49;;;;;;;3.43;0.80;;;7.00;32.80;;;;;;4345433;32;20155;-39
2021/03/06 07:58:22;;;;;;;1.83;1.10;;;6.90;33.30;;;;;;4357534;32;20083;-43
2021/03/06 08:00:56;;;;;;;2.80;1.10;;;6.90;33.80;;;;;;4345814;32;20165;-39
2021/03/06 08:03:32;;;;;;;3.73;1.27;;;6.90;33.90;;;;;;4357755;32;20088;-40
2021/03/06 08:06:06;;;;;;;2.90;0.93;;;7.00;34.10;;;;;;4357312;32;20490;-38
2021/03/06 08:08:33;;;;;;;3.90;0.47;;;7.10;33.60;;;;;;4346738;32;20075;-44
2021/03/06 08:11:10;;;;;;;1.07;0.70;;;7.00;33.50;;;;;;4372515;32;20128;-41
2021/03/06 08:13:46;;;;;;;1.90;0.73;;;7.00;33.50;;;;;;4360088;32;20070;-41
2021/03/06 08:16:21;;;;;;;0.37;0.20;;;7.10;33.90;;;;;;4372019;32;20265;-40
2021/03/06 08:19:12;;;;;;;1.13;0.63;;;7.10;33.80;;;;;;4385453;32;20534;-40
2021/03/06 08:21:47;;;;;;;1.80;0.80;;;7.10;33.00;;;;;;4389452;32;20461;-39
2021/03/06 08:26:53;;;;;;;1.33;0.50;;;6.80;33.80;;;;;;4389583;32;20046;-39
2021/03/06 08:29:23;;;;;;;1.33;0.90;;;6.70;33.90;;;;;;4359566;32;20223;-43
2021/03/06 08:32:29;;;;;;;1.50;0.80;;;6.70;33.70;;;;;;4372288;32;20069;-37
2021/03/06 08:35:19;;;;;;;1.03;0.40;;;6.70;34.10;;;;;;4359421;32;20161;-38
2021/03/06 08:37:47;;;;;;;3.60;1.20;;;6.60;33.60;;;;;;4361489;32;20585;-37
2021/03/06 08:40:19;;;;;;;3.10;0.70;;;6.60;33.40;;;;;;4371830;32;20098;-40
2021/03/06 08:42:53;;;;;;;1.87;0.80;;;6.50;33.60;;;;;;4341802;33;20095;-39
2021/03/06 08:45:29;;;;;;;1.30;0.60;;;6.40;33.40;;;;;;4342133;33;20093;-40
2021/03/06 08:48:03;;;;;;;1.40;0.80;;;6.50;33.40;;;;;;4330408;33;20554;-39
2021/03/06 08:50:32;;;;;;;1.60;0.80;;;6.60;33.30;;;;;;4330302;33;20564;-41
2021/03/06 08:53:06;;;;;;;2.07;0.70;;;6.60;33.40;;;;;;4329663;33;20259;-38
2021/03/06 08:55:40;;;;;;;0.28;0.25;;;6.60;33.40;;;;;;4329718;33;20071;-38
2021/03/06 08:58:08;;;;;;;2.83;0.60;;;6.70;33.50;;;;;;4341623;33;20075;-35
2021/03/06 09:00:36;;;;;;;2.73;0.50;;;6.60;33.50;;;;;;4359567;32;20066;-36
2021/03/06 09:03:19;;;;;;;4.53;0.73;;;6.70;33.40;;;;;;4370998;32;20066;-40
2021/03/06 09:05:52;;;;;;;0.40;0.40;;;6.80;33.50;;;;;;4359102;32;20115;-40
2021/03/06 09:08:22;;;;;;;3.03;1.10;;;6.80;33.20;;;;;;4359037;32;20094;-40
2021/03/06 09:10:49;;;;;;;7.37;1.30;;;6.70;33.00;;;;;;4356118;32;20090;-39
2021/03/06 09:13:19;;;;;;;1.43;0.90;;;6.70;32.90;;;;;;4313880;33;20538;-42
2021/03/06 09:15:54;;;;;;;2.30;1.10;;;6.60;33.00;;;;;;4326337;33;20086;-38
2021/03/06 09:18:29;;;;;;;3.70;1.73;;;6.70;33.20;;;;;;4327059;33;20570;-39
2021/03/06 09:21:05;;;;;;;4.47;1.70;;;6.90;33.30;;;;;;4349746;32;20098;-41
2021/03/06 09:23:36;;;;;;;5.20;1.27;;;6.90;33.00;;;;;;4343461;32;20071;-38
2021/03/06 09:26:08;;;;;;;4.17;1.37;;;7.10;32.80;;;;;;4331549;32;20067;-40
2021/03/06 09:28:35;;;;;;;5.73;1.77;;;7.10;32.80;;;;;;4356273;32;20623;-41
2021/03/06 09:31:28;;;;;;;5.37;2.30;;;7.20;32.50;;;;;;4355890;32;20102;-42
2021/03/06 09:33:58;;;;;;;2.10;0.87;;;7.20;32.60;;;;;;4345125;32;20073;-38
2021/03/06 09:36:29;;;;;;;6.70;2.77;;;7.40;31.90;;;;;;4356220;32;20067;-37
2021/03/06 09:38:58;;;;;;;4.03;1.67;;;7.60;31.40;;;;;;4356130;32;20151;-44
2021/03/06 09:41:29;;;;;;;2.63;1.20;;;7.80;31.70;;;;;;4356194;32;20173;-38
2021/03/06 09:43:57;;;;;;;1.70;0.70;;;8.00;31.50;;;;;;4354979;32;20080;-40
2021/03/06 09:46:27;;;;;;;1.43;0.60;;;8.10;30.60;;;;;;4374560;32;20074;-41
2021/03/06 09:49:01;;;;;;;1.50;0.60;;;8.20;30.70;;;;;;4362308;32;20041;-40
2021/03/06 09:51:53;;;;;;;2.60;1.10;;;8.30;30.00;;;;;;4375500;32;20058;-37
2021/03/06 09:54:24;;;;;;;5.87;2.73;;;8.20;30.40;;;;;;4370440;32;20166;-40
2021/03/06 09:56:56;;;;;;;2.87;1.03;;;8.20;30.30;;;;;;4358758;32;20149;-42
2021/03/06 09:59:24;;;;;;;2.10;0.50;;;8.30;30.90;;;;;;4345932;32;20070;-38
2021/03/06 10:01:51;;;;;;;1.13;0.40;;;8.30;30.20;;;;;;4370575;32;20082;-39
2021/03/06 10:04:22;;;;;;;3.73;1.83;;;8.30;30.00;;;;;;4358740;32;20162;-39
2021/03/06 10:06:53;;;;;;;2.00;1.17;;;8.20;29.90;;;;;;4370769;32;20183;-38
2021/03/06 10:09:21;;;;;;;0.10;0.10;;;8.00;30.30;;;;;;4349389;32;20078;-39
2021/03/06 10:11:53;;;;;;;0.20;0.20;;;7.90;30.60;;;;;;4357859;32;20123;-38
2021/03/06 10:14:25;;;;;;;1.23;0.70;;;7.70;30.30;;;;;;4358977;32;20171;-38
2021/03/06 10:16:53;;;;;;;2.50;0.80;;;7.70;30.10;;;;;;4358432;32;20063;-37
2021/03/06 10:19:30;;;;;;;1.13;0.70;;;7.60;30.00;;;;;;4370326;32;20066;-36
2021/03/06 10:22:04;;;;;;;1.07;0.70;;;7.60;30.00;;;;;;4359028;32;20074;-39
2021/03/06 10:24:32;;;;;;;1.33;0.60;;;7.60;30.00;;;;;;4315796;33;20123;-36
2021/03/06 10:27:00;;;;;;;5.37;1.53;;;7.50;29.70;;;;;;4340569;33;20084;-44
2021/03/06 10:29:28;;;;;;;15.70;2.83;;;7.60;29.60;;;;;;4327778;33;20529;-36
2021/03/06 10:32:03;;;;;;;7.63;1.17;;;7.70;30.00;;;;;;4340488;33;20059;-41
2021/03/06 10:34:37;;;;;;;4.82;1.67;;;7.80;30.00;;;;;;4328705;33;20569;-40
2021/03/06 10:37:16;;;;;;;3.17;1.33;;;8.00;28.90;;;;;;4328880;33;20070;-39
2021/03/06 10:40:03;;;;;;;5.53;1.83;;;8.10;28.90;;;;;;4340720;33;20083;-36
2021/03/06 10:42:52;;;;;;;1.60;1.03;;;8.10;28.90;;;;;;4327860;32;20213;-43
2021/03/06 10:45:29;;;;;;;4.13;0.63;;;8.30;29.10;;;;;;4343516;33;20513;-41
2021/03/06 10:48:03;;;;;;;3.13;1.30;;;8.60;28.10;;;;;;4358320;32;20152;-43
2021/03/06 10:50:31;;;;;;;2.80;0.90;;;8.60;27.50;;;;;;4342968;32;20234;-36
2021/03/06 10:53:18;;;;;;;0.80;0.70;;;8.50;27.10;;;;;;4331553;33;20145;-43
2021/03/06 10:55:46;;;;;;;1.67;1.00;;;8.40;27.30;;;;;;4330933;33;20082;-37
2021/03/06 10:58:13;;;;;;;3.33;1.73;;;8.30;27.40;;;;;;4318622;33;20562;-41
2021/03/06 11:00:40;;;;;;;4.73;1.13;;;8.30;26.40;;;;;;4331371;32;20081;-37
2021/03/06 11:03:09;;;;;;;4.20;1.20;;;8.40;26.90;;;;;;4347092;32;20578;-41
2021/03/06 11:05:35;;;;;;;7.33;1.97;;;8.40;27.00;;;;;;4360788;32;20447;-37
2021/03/06 11:08:34;;;;;;;5.17;2.03;;;8.30;26.90;;;;;;4360401;32;20112;-41
2021/03/06 11:11:01;;;;;;;4.20;2.07;;;8.50;27.60;;;;;;4316505;33;20098;-42
2021/03/06 11:13:44;;;;;;;6.37;1.40;;;8.80;27.50;;;;;;4316528;33;20107;-39
2021/03/06 11:16:12;;;;;;;4.90;1.83;;;8.90;27.30;;;;;;4316594;33;20630;-40
2021/03/06 11:18:43;;;;;;;3.73;1.93;;;8.80;26.70;;;;;;4328462;33;20075;-41
2021/03/06 11:21:11;;;;;;;7.43;1.90;;;8.70;26.20;;;;;;4304122;33;20082;-41
2021/03/06 11:23:38;;;;;;;6.73;2.37;;;8.80;27.40;;;;;;4287126;33;20076;-42
2021/03/06 11:26:05;;;;;;;5.97;1.90;;;8.90;28.20;;;;;;4298745;33;20063;-41
2021/03/06 11:28:32;;;;;;;2.13;1.10;;;8.90;28.60;;;;;;4299155;33;20507;-40
2021/03/06 11:31:00;;;;;;;1.17;0.60;;;8.80;28.40;;;;;;4287098;33;20071;-39
2021/03/06 11:33:26;;;;;;;4.90;1.60;;;8.60;26.80;;;;;;4284263;33;20083;-37
2021/03/06 11:35:53;;;;;;;5.93;1.17;;;8.40;26.00;;;;;;4284393;33;20096;-37
2021/03/06 11:38:21;;;;;;;13.57;4.43;;;8.40;27.00;;;;;;4272224;33;20196;-40
2021/03/06 11:40:49;;;;;;;4.17;2.03;;;8.50;28.30;;;;;;4284512;33;20556;-38
2021/03/06 11:43:16;;;;;;;4.47;1.77;;;8.70;28.70;;;;;;4284742;33;20167;-39
2021/03/06 11:45:42;;;;;;;4.77;1.30;;;8.80;28.80;;;;;;4291979;33;20627;-41
2021/03/06 11:48:09;;;;;;;6.37;1.40;;;8.90;29.00;;;;;;4330557;33;20079;-41
2021/03/06 11:50:39;;;;;;;2.23;1.63;;;8.90;29.10;;;;;;4330497;33;20066;-39
2021/03/06 11:53:05;;;;;;;1.40;1.00;;;9.00;29.00;;;;;;4318380;33;20496;-39
2021/03/06 11:55:33;;;;;;;5.47;1.40;;;9.00;29.10;;;;;;4355412;32;20070;-41
2021/03/06 11:58:00;;;;;;;2.30;1.10;;;9.20;29.10;;;;;;4372362;32;20062;-38
2021/03/06 12:00:28;;;;;;;4.03;1.40;;;9.30;29.00;;;;;;4347320;32;20097;-39
2021/03/06 12:02:55;;;;;;;3.30;1.50;;;9.40;29.10;;;;;;4372608;32;20078;-39
2021/03/06 12:05:21;;;;;;;4.97;1.03;;;9.60;29.10;;;;;;4387387;32;20070;-36
2021/03/06 12:07:48;;;;;;;4.50;1.80;;;9.80;28.70;;;;;;4389795;32;20637;-37
2021/03/06 12:10:16;;;;;;;4.77;1.97;;;9.80;28.50;;;;;;4389968;32;20074;-39
2021/03/06 12:12:44;;;;;;;4.07;1.60;;;9.70;28.00;;;;;;4350990;32;20094;-41
2021/03/06 12:15:13;;;;;;;9.37;2.33;;;9.60;27.70;;;;;;4390012;32;20179;-40
2021/03/06 12:17:40;;;;;;;5.30;1.63;;;9.50;28.50;;;;;;4389855;32;20596;-42
2021/03/06 12:20:07;;;;;;;3.33;1.37;;;9.40;28.30;;;;;;4389982;32;20082;-43
2021/03/06 12:22:34;;;;;;;2.97;0.60;;;9.40;27.10;;;;;;4390007;32;20073;-41
2021/03/06 12:25:01;;;;;;;4.60;1.10;;;9.40;25.50;;;;;;4388460;32;20066;-42
2021/03/06 12:27:27;;;;;;;4.83;0.80;;;9.30;24.50;;;;;;4375810;32;20564;-41
2021/03/06 12:29:54;;;;;;;1.57;0.60;;;9.10;24.90;;;;;;4389335;32;20058;-42
2021/03/06 12:32:21;;;;;;;3.90;0.70;;;8.90;25.30;;;;;;4388145;32;20074;-41
2021/03/06 12:34:47;;;;;;;1.90;0.73;;;8.60;24.80;;;;;;4344337;32;20074;-46
2021/03/06 12:37:14;;;;;;;3.87;0.70;;;8.40;25.00;;;;;;4299979;33;20461;-41
2021/03/06 12:39:40;;;;;;;1.47;0.67;;;8.20;23.90;;;;;;4300308;33;20059;-40
2021/03/06 12:42:07;;;;;;;2.23;1.10;;;8.10;24.80;;;;;;4300131;33;20063;-41
2021/03/06 12:44:33;;;;;;;3.10;0.60;;;8.00;24.70;;;;;;4300801;33;20464;-39
2021/03/06 12:47:00;;;;;;;6.97;1.20;;;7.80;24.80;;;;;;4288321;33;20054;-41
2021/03/06 12:49:27;;;;;;;4.33;0.90;;;7.60;25.20;;;;;;4312247;33;20653;-39
2021/03/06 12:51:53;;;;;;;3.90;0.70;;;7.50;25.50;;;;;;4300117;33;20075;-43
2021/03/06 12:54:22;;;;;;;1.67;0.70;;;7.30;25.50;;;;;;4300456;33;20507;-40
2021/03/06 12:56:49;;;;;;;2.57;0.90;;;7.20;25.50;;;;;;4300403;33;20078;-39
2021/03/06 12:59:16;;;;;;;3.40;0.80;;;7.10;25.40;;;;;;4287999;33;20604;-39
2021/03/06 13:01:42;;;;;;;1.73;0.80;;;7.00;25.60;;;;;;4271004;33;20135;-41
2021/03/06 13:04:09;;;;;;;8.20;1.57;;;6.90;25.60;;;;;;4271644;33;20076;-39
2021/03/06 13:06:35;;;;;;;10.73;1.87;;;6.90;27.00;;;;;;4294937;33;20097;-39
2021/03/06 13:09:02;;;;;;;5.40;1.90;;;6.90;27.20;;;;;;4324039;32;20546;-40
2021/03/06 13:11:29;;;;;;;3.70;1.80;;;7.00;27.70;;;;;;4356478;32;20086;-39